createdAt,value
2023-02-27T00:01:46.757Z,6.10
2023-02-27T00:04:14.041Z,5.82
2023-02-27T00:06:41.306Z,4.35
2023-02-27T00:09:09.458Z,5.25
2023-02-27T00:11:38.584Z,4.43
2023-02-27T00:14:06.061Z,4.53
2023-02-27T00:16:34.854Z,4.93
2023-02-27T00:19:04.913Z,3.30
2023-02-27T00:21:36.467Z,5.30
2023-02-27T00:24:06.132Z,3.65
2023-02-27T00:26:33.565Z,4.32
2023-02-27T00:29:00.850Z,4.30
2023-02-27T00:31:28.443Z,4.05
2023-02-27T00:33:56.465Z,4.68
2023-02-27T00:36:23.730Z,4.88
2023-02-27T00:38:50.960Z,3.80
2023-02-27T00:41:18.260Z,3.80
2023-02-27T00:43:46.197Z,5.03
2023-02-27T00:46:13.441Z,4.30
2023-02-27T00:48:40.719Z,4.07
2023-02-27T00:51:08.168Z,4.32
2023-02-27T00:53:35.403Z,4.28
2023-02-27T00:56:02.592Z,4.15
2023-02-27T00:58:29.706Z,3.83
2023-02-27T01:00:57.111Z,4.28
2023-02-27T01:03:24.786Z,4.43
2023-02-27T01:05:52.159Z,4.60
2023-02-27T01:08:20.760Z,4.10
2023-02-27T01:10:48.041Z,3.63
2023-02-27T01:13:15.298Z,3.30
2023-02-27T01:15:42.808Z,3.25
2023-02-27T01:18:12.622Z,3.38
2023-02-27T01:20:39.927Z,3.50
2023-02-27T01:23:07.242Z,3.22
2023-02-27T01:25:34.787Z,3.97
2023-02-27T01:28:01.942Z,2.58
2023-02-27T01:30:30.686Z,3.38
2023-02-27T01:32:57.832Z,3.35
2023-02-27T01:35:25.620Z,3.30
2023-02-27T01:37:53.138Z,3.75
2023-02-27T01:40:21.547Z,3.78
2023-02-27T01:42:48.751Z,3.25
2023-02-27T01:45:15.867Z,2.88
2023-02-27T01:47:46.749Z,3.17
2023-02-27T01:50:14.497Z,3.55
2023-02-27T01:52:42.110Z,2.42
2023-02-27T01:55:12.997Z,3.33
2023-02-27T01:57:41.657Z,2.85
2023-02-27T02:00:10.194Z,4.15
2023-02-27T02:02:39.392Z,3.85
2023-02-27T02:05:08.248Z,3.25
2023-02-27T02:07:38.660Z,4.80
2023-02-27T02:10:06.482Z,3.03
2023-02-27T02:12:35.733Z,3.30
2023-02-27T02:15:03.342Z,3.25
2023-02-27T02:17:44.326Z,3.60
2023-02-27T02:20:30.296Z,3.25
2023-02-27T02:23:03.458Z,3.40
2023-02-27T02:25:54.657Z,3.58
2023-02-27T02:28:48.163Z,3.85
2023-02-27T02:31:21.676Z,4.10
2023-02-27T02:34:00.529Z,3.58
2023-02-27T02:36:41.290Z,3.47
2023-02-27T02:42:01.017Z,3.67
2023-02-27T02:44:29.455Z,3.20
2023-02-27T02:47:08.827Z,3.80
2023-02-27T02:49:39.433Z,3.50
2023-02-27T02:52:14.569Z,3.70
2023-02-27T02:54:48.871Z,4.50
2023-02-27T02:57:26.070Z,4.45
2023-02-27T03:00:12.507Z,4.15
2023-02-27T03:02:43.788Z,3.05
2023-02-27T03:05:15.048Z,4.57
2023-02-27T03:07:51.953Z,4.10
2023-02-27T03:10:19.340Z,3.85
2023-02-27T03:12:50.570Z,6.18
2023-02-27T03:15:19.753Z,9.50
2023-02-27T03:17:52.532Z,9.95
2023-02-27T03:20:23.598Z,11.27
2023-02-27T03:22:53.113Z,11.40
2023-02-27T03:25:21.308Z,10.90
2023-02-27T03:27:52.703Z,10.35
2023-02-27T03:30:41.513Z,9.38
2023-02-27T03:33:11.029Z,10.40
2023-02-27T03:35:54.561Z,8.43
2023-02-27T03:38:27.070Z,8.40
2023-02-27T03:41:03.266Z,8.10
2023-02-27T03:43:39.805Z,8.25
2023-02-27T03:46:06.966Z,7.97
2023-02-27T03:48:34.538Z,4.47
2023-02-27T03:51:02.025Z,5.25
2023-02-27T03:53:34.306Z,5.05
2023-02-27T03:56:02.848Z,4.88
2023-02-27T03:58:30.907Z,4.53
2023-02-27T04:00:58.091Z,4.03
2023-02-27T04:03:32.861Z,4.57
2023-02-27T04:06:20.066Z,4.40
2023-02-27T04:08:56.140Z,4.13
2023-02-27T04:11:36.463Z,4.00
2023-02-27T04:14:10.093Z,4.18
2023-02-27T04:16:40.351Z,4.03
2023-02-27T04:19:13.259Z,4.03
2023-02-27T04:21:54.460Z,3.80
2023-02-27T04:24:30.824Z,5.15
2023-02-27T04:27:06.893Z,4.03
2023-02-27T04:29:34.150Z,5.97
2023-02-27T04:32:07.623Z,5.80
2023-02-27T04:35:04.296Z,4.78
2023-02-27T04:37:35.617Z,4.43
2023-02-27T04:40:09.474Z,4.00
2023-02-27T04:42:39.702Z,4.50
2023-02-27T04:45:08.894Z,3.92
2023-02-27T04:47:39.788Z,4.63
2023-02-27T04:50:19.668Z,3.88
2023-02-27T04:52:50.742Z,4.43
2023-02-27T04:55:50.405Z,4.80
2023-02-27T04:58:30.837Z,5.22
2023-02-27T05:01:07.373Z,3.95
2023-02-27T05:03:36.045Z,3.72
2023-02-27T05:06:03.646Z,3.80
2023-02-27T05:08:30.783Z,3.63
2023-02-27T05:11:03.931Z,3.50
2023-02-27T05:13:39.804Z,4.07
2023-02-27T05:16:07.467Z,4.15
2023-02-27T05:18:34.750Z,4.40
2023-02-27T05:21:22.268Z,3.90
2023-02-27T05:24:01.822Z,4.32
2023-02-27T05:26:48.115Z,4.55
2023-02-27T05:29:21.337Z,4.03
2023-02-27T05:31:54.154Z,4.75
2023-02-27T05:34:30.752Z,4.63
2023-02-27T05:37:04.828Z,4.35
2023-02-27T05:39:33.415Z,4.93
2023-02-27T05:42:06.279Z,5.38
2023-02-27T05:44:38.916Z,4.70
2023-02-27T05:47:09.290Z,4.50
2023-02-27T05:49:42.255Z,5.22
2023-02-27T05:52:12.069Z,4.35
2023-02-27T05:54:48.481Z,5.17
2023-02-27T05:57:19.038Z,4.60
2023-02-27T05:59:46.326Z,4.10
2023-02-27T06:02:13.921Z,4.60
2023-02-27T06:04:41.880Z,4.80
2023-02-27T06:07:09.274Z,5.55
2023-02-27T06:09:37.188Z,4.80
2023-02-27T06:12:04.386Z,6.03
2023-02-27T06:14:31.534Z,6.03
2023-02-27T06:16:58.839Z,4.85
2023-02-27T06:19:26.044Z,5.80
2023-02-27T06:21:53.120Z,5.45
2023-02-27T06:24:22.142Z,5.72
2023-02-27T06:26:49.336Z,5.47
2023-02-27T06:29:18.381Z,5.85
2023-02-27T06:31:45.774Z,5.40
2023-02-27T06:34:12.942Z,4.85
2023-02-27T06:36:40.276Z,4.72
2023-02-27T06:39:08.954Z,6.03
2023-02-27T06:41:36.080Z,6.35
2023-02-27T06:44:03.162Z,6.55
2023-02-27T06:46:30.635Z,6.07
2023-02-27T06:48:58.169Z,6.05
2023-02-27T06:51:25.308Z,5.80
2023-02-27T06:53:52.503Z,5.45
2023-02-27T06:56:19.789Z,5.32
2023-02-27T06:58:46.986Z,5.50
2023-02-27T07:01:14.555Z,5.15
2023-02-27T07:03:41.909Z,6.15
2023-02-27T07:06:09.034Z,5.60
2023-02-27T07:08:36.157Z,6.18
2023-02-27T07:11:03.372Z,6.28
2023-02-27T07:13:30.601Z,5.55
2023-02-27T07:15:57.954Z,5.72
2023-02-27T07:18:25.608Z,5.43
2023-02-27T07:20:55.158Z,5.88
2023-02-27T07:23:23.151Z,6.80
2023-02-27T07:25:50.261Z,5.93
2023-02-27T07:28:17.731Z,6.68
2023-02-27T07:30:45.149Z,6.90
2023-02-27T07:33:12.609Z,6.65
2023-02-27T07:35:39.810Z,6.32
2023-02-27T07:38:09.336Z,6.18
2023-02-27T07:40:36.420Z,7.50
2023-02-27T07:43:03.646Z,7.22
2023-02-27T07:45:30.907Z,6.97
2023-02-27T07:47:58.044Z,7.10
2023-02-27T07:50:25.220Z,7.53
2023-02-27T07:52:53.249Z,6.90
2023-02-27T07:55:20.339Z,5.80
2023-02-27T07:57:47.664Z,7.20
2023-02-27T08:00:15.197Z,5.78
2023-02-27T08:02:43.643Z,5.80
2023-02-27T08:05:10.898Z,6.60
2023-02-27T08:07:37.997Z,6.32
2023-02-27T08:10:05.729Z,6.88
2023-02-27T08:12:32.964Z,5.82
2023-02-27T08:15:00.109Z,6.97
2023-02-27T08:17:27.237Z,6.53
2023-02-27T08:19:54.487Z,6.07
2023-02-27T08:22:21.651Z,6.60
2023-02-27T08:24:48.813Z,6.55
2023-02-27T08:27:16.035Z,6.07
2023-02-27T08:29:43.463Z,6.65
2023-02-27T08:32:10.696Z,6.50
2023-02-27T08:34:38.058Z,5.80
2023-02-27T08:37:05.174Z,6.60
2023-02-27T08:39:32.410Z,7.25
2023-02-27T08:41:59.666Z,7.03
2023-02-27T08:44:27.111Z,7.30
2023-02-27T08:46:54.573Z,5.93
2023-02-27T08:49:23.051Z,6.80
2023-02-27T08:51:50.135Z,6.03
2023-02-27T08:54:17.701Z,6.70
2023-02-27T08:56:45.024Z,6.30
2023-02-27T08:59:12.248Z,5.25
2023-02-27T09:01:39.538Z,5.05
2023-02-27T09:04:07.201Z,4.13
2023-02-27T09:06:35.935Z,4.45
2023-02-27T09:09:03.713Z,4.45
2023-02-27T09:11:31.246Z,5.03
2023-02-27T09:13:58.998Z,5.68
2023-02-27T09:16:26.381Z,5.13
2023-02-27T09:18:54.056Z,4.82
2023-02-27T09:21:21.239Z,4.57
2023-02-27T09:23:48.402Z,5.38
2023-02-27T09:26:17.013Z,5.68
2023-02-27T09:28:44.444Z,7.43
2023-02-27T09:31:12.705Z,6.00
2023-02-27T09:33:40.170Z,6.47
2023-02-27T09:36:07.765Z,5.32
2023-02-27T09:38:35.401Z,6.30
2023-02-27T09:41:02.984Z,7.07
2023-02-27T09:43:36.612Z,6.75
2023-02-27T09:46:04.233Z,6.63
2023-02-27T09:48:31.396Z,7.03
2023-02-27T09:50:59.097Z,6.88
2023-02-27T09:53:31.326Z,6.25
2023-02-27T09:56:05.088Z,6.65
2023-02-27T09:58:38.511Z,7.25
2023-02-27T10:01:14.725Z,6.43
2023-02-27T10:03:59.545Z,5.85
2023-02-27T10:06:28.397Z,5.68
2023-02-27T10:09:14.219Z,6.22
2023-02-27T10:11:46.498Z,6.00
2023-02-27T10:14:31.141Z,5.80
2023-02-27T10:16:59.042Z,5.10
2023-02-27T10:19:33.977Z,5.32
2023-02-27T10:22:04.290Z,5.43
2023-02-27T10:24:46.432Z,4.80
2023-02-27T10:27:17.153Z,5.63
2023-02-27T10:32:14.140Z,6.55
2023-02-27T10:34:42.627Z,5.63
2023-02-27T10:37:14.112Z,5.60
2023-02-27T10:40:00.942Z,5.07
2023-02-27T10:42:30.020Z,4.78
2023-02-27T10:44:57.154Z,4.32
2023-02-27T10:47:25.527Z,4.18
2023-02-27T10:49:53.850Z,4.13
2023-02-27T10:52:21.339Z,4.93
2023-02-27T10:54:48.702Z,5.10
2023-02-27T10:57:24.064Z,5.07
2023-02-27T10:59:59.062Z,4.22
2023-02-27T11:02:33.706Z,3.78
2023-02-27T11:05:01.183Z,5.03
2023-02-27T11:07:38.858Z,5.75
2023-02-27T11:10:15.321Z,5.43
2023-02-27T11:12:43.524Z,4.20
2023-02-27T11:15:16.768Z,4.68
2023-02-27T11:17:44.457Z,4.65
2023-02-27T11:20:30.539Z,4.22
2023-02-27T11:23:13.868Z,7.20
2023-02-27T11:25:41.300Z,5.32
2023-02-27T11:28:21.326Z,5.45
2023-02-27T11:31:03.437Z,7.30
2023-02-27T11:33:33.552Z,6.68
2023-02-27T11:36:00.831Z,5.82
2023-02-27T11:38:31.493Z,5.90
2023-02-27T11:43:25.737Z,6.03
2023-02-27T11:46:15.414Z,4.43
2023-02-27T11:48:49.410Z,6.10
2023-02-27T11:51:26.238Z,5.68
2023-02-27T11:53:57.185Z,4.70
2023-02-27T11:59:00.705Z,4.28
2023-02-27T12:01:33.978Z,4.75
2023-02-27T12:04:27.729Z,4.70
2023-02-27T12:07:17.440Z,5.82
2023-02-27T12:09:46.850Z,5.00
2023-02-27T12:12:20.776Z,4.47
2023-02-27T12:14:58.375Z,4.50
2023-02-27T12:17:28.556Z,4.93
2023-02-27T12:20:09.591Z,5.95
2023-02-27T12:22:38.903Z,5.55
2023-02-27T12:25:12.445Z,6.43
2023-02-27T12:27:45.566Z,5.03
2023-02-27T12:30:18.524Z,5.32
2023-02-27T12:32:45.633Z,5.05
2023-02-27T12:35:28.606Z,4.43
2023-02-27T12:37:56.565Z,4.82
2023-02-27T12:40:30.213Z,5.10
2023-02-27T12:43:35.709Z,5.25
2023-02-27T12:46:12.476Z,3.38
2023-02-27T12:48:51.382Z,4.60
2023-02-27T12:51:30.665Z,4.00
2023-02-27T12:54:16.542Z,4.22
2023-02-27T12:56:51.128Z,4.03
2023-02-27T12:59:30.454Z,4.80
2023-02-27T13:02:06.743Z,5.28
2023-02-27T13:04:47.355Z,8.23
2023-02-27T13:07:22.222Z,6.00
2023-02-27T13:10:01.220Z,5.18
2023-02-27T13:12:35.164Z,4.13
2023-02-27T13:15:07.280Z,5.38
2023-02-27T13:17:42.079Z,5.75
2023-02-27T13:20:25.708Z,5.38
2023-02-27T13:23:02.120Z,3.95
2023-02-27T13:25:29.237Z,4.53
2023-02-27T13:28:00.233Z,5.60
2023-02-27T13:30:33.661Z,5.22
2023-02-27T13:33:08.964Z,6.10
2023-02-27T13:35:56.025Z,4.55
2023-02-27T13:38:34.197Z,4.53
2023-02-27T13:41:19.749Z,5.13
2023-02-27T13:43:56.932Z,5.70
2023-02-27T13:46:31.100Z,5.63
2023-02-27T13:49:10.682Z,5.13
2023-02-27T13:51:41.159Z,4.85
2023-02-27T13:54:09.764Z,3.70
2023-02-27T13:56:36.985Z,3.33
2023-02-27T13:59:19.348Z,3.60
2023-02-27T14:01:52.221Z,3.42
2023-02-27T14:04:20.102Z,2.45
2023-02-27T14:06:48.192Z,3.10
2023-02-27T14:09:18.361Z,3.67
2023-02-27T14:11:54.108Z,3.30
2023-02-27T14:14:36.666Z,3.20
2023-02-27T14:17:04.482Z,3.53
2023-02-27T14:19:34.382Z,3.92
2023-02-27T14:22:03.316Z,4.05
2023-02-27T14:24:49.680Z,4.75
2023-02-27T14:27:25.898Z,5.25
2023-02-27T14:29:55.018Z,5.22
2023-02-27T14:32:23.981Z,4.40
2023-02-27T14:34:52.440Z,5.03
2023-02-27T14:37:23.534Z,4.45
2023-02-27T14:39:51.660Z,5.43
2023-02-27T14:42:37.554Z,9.88
2023-02-27T14:45:05.221Z,6.20
2023-02-27T14:47:33.884Z,4.88
2023-02-27T14:50:01.818Z,5.28
2023-02-27T14:52:30.556Z,5.18
2023-02-27T14:55:16.580Z,5.13
2023-02-27T14:57:54.509Z,8.43
2023-02-27T15:00:49.213Z,8.80
2023-02-27T15:03:24.668Z,7.35
2023-02-27T15:05:54.014Z,7.93
2023-02-27T15:08:30.215Z,6.75
2023-02-27T15:10:57.994Z,6.90
2023-02-27T15:13:31.090Z,5.95
2023-02-27T15:16:17.084Z,8.80
2023-02-27T15:18:48.469Z,10.27
2023-02-27T15:21:20.430Z,11.43
2023-02-27T15:24:03.226Z,13.82
2023-02-27T15:26:31.280Z,12.27
2023-02-27T15:29:00.299Z,11.40
2023-02-27T15:31:31.072Z,8.75
2023-02-27T15:34:00.035Z,6.93
2023-02-27T15:36:31.648Z,6.45
2023-02-27T15:39:06.604Z,7.07
2023-02-27T15:41:34.044Z,7.35
2023-02-27T15:44:02.247Z,6.47
2023-02-27T15:46:29.583Z,6.85
2023-02-27T15:48:56.942Z,5.53
2023-02-27T15:51:26.209Z,8.00
2023-02-27T15:53:55.186Z,8.32
2023-02-27T15:56:27.074Z,9.80
2023-02-27T15:59:00.232Z,8.20
2023-02-27T16:01:35.433Z,6.70
2023-02-27T16:04:05.767Z,5.80
2023-02-27T16:06:34.532Z,6.05
2023-02-27T16:09:07.163Z,4.93
2023-02-27T16:11:35.849Z,4.93
2023-02-27T16:14:03.425Z,6.10
2023-02-27T16:16:35.955Z,6.20
2023-02-27T16:19:15.522Z,7.68
2023-02-27T16:22:02.554Z,7.25
2023-02-27T16:24:31.230Z,4.80
2023-02-27T16:26:58.436Z,5.93
2023-02-27T16:29:35.782Z,5.22
2023-02-27T16:32:03.220Z,5.13
2023-02-27T16:34:44.297Z,6.53
2023-02-27T16:37:23.764Z,4.78
2023-02-27T16:39:54.802Z,5.40
2023-02-27T16:42:24.320Z,5.10
2023-02-27T16:44:51.515Z,5.15
2023-02-27T16:47:18.634Z,4.65
2023-02-27T16:49:47.309Z,5.78
2023-02-27T16:52:14.429Z,6.88
2023-02-27T16:54:42.068Z,8.15
2023-02-27T16:57:14.606Z,6.78
2023-02-27T16:59:49.370Z,7.68
2023-02-27T17:02:29.724Z,6.50
2023-02-27T17:04:58.221Z,7.00
2023-02-27T17:07:25.469Z,7.60
2023-02-27T17:09:52.619Z,8.10
2023-02-27T17:12:23.231Z,10.90
2023-02-27T17:14:50.525Z,10.20
2023-02-27T17:17:19.772Z,28.65
2023-02-27T17:19:53.076Z,13.45
2023-02-27T17:22:20.231Z,8.07
2023-02-27T17:24:47.411Z,7.93
2023-02-27T17:27:17.054Z,6.72
2023-02-27T17:30:08.444Z,6.30
2023-02-27T17:32:54.959Z,5.88
2023-02-27T17:35:22.326Z,6.28
2023-02-27T17:37:50.960Z,5.70
2023-02-27T17:40:31.954Z,5.35
2023-02-27T17:43:00.875Z,5.28
2023-02-27T17:45:28.209Z,5.63
2023-02-27T17:48:03.465Z,5.07
2023-02-27T17:50:32.181Z,6.22
2023-02-27T17:52:59.368Z,8.15
2023-02-27T17:55:26.789Z,9.05
2023-02-27T17:57:53.966Z,9.80
2023-02-27T18:00:21.535Z,11.07
2023-02-27T18:02:48.786Z,12.23
2023-02-27T18:05:16.263Z,12.95
2023-02-27T18:07:43.597Z,15.50
2023-02-27T18:10:11.548Z,14.25
2023-02-27T18:12:39.255Z,15.25
2023-02-27T18:15:07.612Z,16.60
2023-02-27T18:17:35.126Z,17.08
2023-02-27T18:20:02.367Z,16.92
2023-02-27T18:22:30.000Z,16.88
2023-02-27T18:24:58.739Z,13.73
2023-02-27T18:27:28.137Z,14.38
2023-02-27T18:30:01.694Z,14.40
2023-02-27T18:32:28.955Z,12.35
2023-02-27T18:34:56.237Z,12.63
2023-02-27T18:37:25.198Z,13.40
2023-02-27T18:39:52.665Z,13.57
2023-02-27T18:42:20.513Z,11.00
2023-02-27T18:44:48.381Z,21.05
2023-02-27T18:47:15.642Z,20.20
2023-02-27T18:49:48.729Z,16.55
2023-02-27T18:53:36.978Z,14.93
2023-02-27T18:55:57.982Z,11.00
2023-02-27T18:58:53.623Z,11.60
2023-02-27T19:02:03.832Z,153.27
2023-02-27T19:19:53.302Z,344.15
2023-02-27T19:22:22.997Z,136.25
2023-02-27T19:24:50.998Z,71.23
2023-02-27T19:27:20.760Z,31.10
2023-02-27T19:29:50.738Z,24.07
2023-02-27T19:32:18.518Z,12.00
2023-02-27T19:34:49.977Z,12.32
2023-02-27T19:37:21.527Z,11.82
2023-02-27T19:39:51.924Z,10.27
2023-02-27T19:42:19.480Z,11.32
2023-02-27T19:44:47.860Z,11.00
2023-02-27T19:47:27.078Z,11.70
2023-02-27T19:50:02.558Z,14.80
2023-02-27T19:52:29.994Z,13.38
2023-02-27T19:54:57.595Z,12.75
2023-02-27T19:57:29.579Z,11.60
2023-02-27T20:00:01.882Z,10.85
2023-02-27T20:02:46.293Z,12.43
2023-02-27T20:05:32.584Z,11.57
2023-02-27T20:08:06.955Z,10.82
2023-02-27T20:10:45.388Z,10.73
2023-02-27T20:13:16.616Z,12.45
2023-02-27T20:15:44.061Z,11.38
2023-02-27T20:18:11.453Z,11.57
2023-02-27T20:20:40.113Z,12.85
2023-02-27T20:23:07.342Z,12.05
2023-02-27T20:25:34.559Z,14.30
2023-02-27T20:28:01.996Z,13.88
2023-02-27T20:30:29.235Z,11.82
2023-02-27T20:32:56.655Z,12.13
2023-02-27T20:35:23.927Z,10.55
2023-02-27T20:37:51.160Z,11.73
2023-02-27T20:40:18.689Z,12.00
2023-02-27T20:42:45.868Z,12.80
2023-02-27T20:45:13.292Z,12.15
2023-02-27T20:47:40.966Z,11.38
2023-02-27T20:50:11.552Z,12.13
2023-02-27T20:52:38.749Z,10.98
2023-02-27T20:55:06.103Z,10.60
2023-02-27T20:57:33.513Z,11.13
2023-02-27T21:00:00.711Z,11.60
2023-02-27T21:02:27.858Z,13.00
2023-02-27T21:04:57.512Z,12.20
2023-02-27T21:07:24.893Z,13.33
2023-02-27T21:09:52.054Z,10.63
2023-02-27T21:12:19.173Z,10.98
2023-02-27T21:14:46.804Z,12.13
2023-02-27T21:17:14.085Z,11.68
2023-02-27T21:19:45.043Z,11.32
2023-02-27T21:22:19.921Z,11.35
2023-02-27T21:24:52.852Z,11.45
2023-02-27T21:27:21.655Z,12.15
2023-02-27T21:29:52.593Z,12.55
2023-02-27T21:32:24.091Z,12.35
2023-02-27T21:34:53.419Z,11.45
2023-02-27T21:37:20.648Z,9.85
2023-02-27T21:39:55.324Z,11.50
2023-02-27T21:42:22.725Z,11.95
2023-02-27T21:44:50.216Z,11.98
2023-02-27T21:47:18.033Z,11.95
2023-02-27T21:49:47.826Z,13.57
2023-02-27T21:52:16.467Z,13.73
2023-02-27T21:54:59.145Z,14.75
2023-02-27T21:57:26.286Z,12.75
2023-02-27T21:59:53.694Z,12.52
2023-02-27T22:02:21.919Z,11.90
2023-02-27T22:04:51.060Z,12.45
2023-02-27T22:07:18.352Z,13.43
2023-02-27T22:09:45.909Z,13.85
2023-02-27T22:12:15.142Z,13.75
2023-02-27T22:14:43.378Z,13.15
2023-02-27T22:17:11.501Z,14.27
2023-02-27T22:19:38.690Z,15.00
2023-02-27T22:22:10.211Z,17.20
2023-02-27T22:25:01.135Z,18.70
2023-02-27T22:27:30.891Z,17.15
2023-02-27T22:33:42.976Z,19.77
2023-02-27T22:36:13.118Z,20.50
2023-02-27T22:38:50.563Z,19.77
2023-02-27T22:41:50.996Z,16.13
2023-02-27T22:44:49.201Z,19.17
2023-02-27T22:47:21.738Z,20.27
2023-02-27T22:50:28.676Z,19.75
2023-02-27T22:53:25.160Z,17.13
2023-02-27T22:56:04.932Z,16.70
2023-02-27T22:58:37.196Z,17.73
2023-02-27T23:01:40.067Z,18.98
2023-02-27T23:04:09.106Z,24.90
2023-02-27T23:06:39.108Z,18.42
2023-02-27T23:09:07.744Z,19.33
2023-02-27T23:11:35.008Z,17.33
2023-02-27T23:14:02.558Z,18.02
2023-02-27T23:16:29.891Z,18.52
2023-02-27T23:18:58.885Z,17.70
2023-02-27T23:21:34.791Z,18.00
2023-02-27T23:24:13.171Z,17.85
2023-02-27T23:26:42.740Z,28.85
2023-02-27T23:29:10.526Z,22.95
2023-02-27T23:31:38.138Z,24.70
2023-02-27T23:34:06.064Z,30.30
2023-02-27T23:36:35.072Z,25.02
2023-02-27T23:39:03.147Z,21.40
2023-02-27T23:41:31.221Z,21.15
2023-02-27T23:43:58.718Z,20.58
2023-02-27T23:46:30.680Z,20.35
2023-02-27T23:48:58.770Z,20.60
2023-02-27T23:51:27.454Z,21.13
2023-02-27T23:53:57.814Z,20.83
2023-02-27T23:56:26.813Z,21.50
2023-02-27T23:58:59.887Z,21.45
